sensor_id;sensor_type;location;lat;lon;timestamp;pressure;altitude;pressure_sealevel;temperature
22269;BMP280;11303;50.772;19.670;2022-11-20T00:00:03;98770.28;;;-7.73
22269;BMP280;11303;50.772;19.670;2022-11-20T00:02:05;98770.06;;;-7.77
22269;BMP280;11303;50.772;19.670;2022-11-20T00:04:08;98771.09;;;-7.78
22269;BMP280;11303;50.772;19.670;2022-11-20T00:06:14;98769.03;;;-7.76
22269;BMP280;11303;50.772;19.670;2022-11-20T00:08:15;98766.69;;;-7.72
22269;BMP280;11303;50.772;19.670;2022-11-20T00:10:17;98760.22;;;-7.70
22269;BMP280;11303;50.772;19.670;2022-11-20T00:12:18;98765.13;;;-7.73
22269;BMP280;11303;50.772;19.670;2022-11-20T00:14:20;98769.81;;;-7.75
22269;BMP280;11303;50.772;19.670;2022-11-20T00:16:23;98766.47;;;-7.76
22269;BMP280;11303;50.772;19.670;2022-11-20T00:18:26;98763.59;;;-7.74
22269;BMP280;11303;50.772;19.670;2022-11-20T00:20:27;98755.66;;;-7.78
22269;BMP280;11303;50.772;19.670;2022-11-20T00:22:29;98756.44;;;-7.82
22269;BMP280;11303;50.772;19.670;2022-11-20T00:24:30;98746.66;;;-7.85
22269;BMP280;11303;50.772;19.670;2022-11-20T00:26:32;98748.25;;;-7.89
22269;BMP280;11303;50.772;19.670;2022-11-20T00:28:33;98745.41;;;-7.93
22269;BMP280;11303;50.772;19.670;2022-11-20T00:30:35;98745.41;;;-7.93
22269;BMP280;11303;50.772;19.670;2022-11-20T00:32:36;98754.16;;;-7.94
22269;BMP280;11303;50.772;19.670;2022-11-20T00:34:38;98744.16;;;-7.95
22269;BMP280;11303;50.772;19.670;2022-11-20T00:36:39;98741.25;;;-7.84
22269;BMP280;11303;50.772;19.670;2022-11-20T00:38:41;98742.31;;;-7.80
22269;BMP280;11303;50.772;19.670;2022-11-20T00:40:43;98744.59;;;-7.83
22269;BMP280;11303;50.772;19.670;2022-11-20T00:42:44;98739.50;;;-7.88
22269;BMP280;11303;50.772;19.670;2022-11-20T00:44:46;98746.72;;;-7.90
22269;BMP280;11303;50.772;19.670;2022-11-20T00:46:47;98734.59;;;-7.90
22269;BMP280;11303;50.772;19.670;2022-11-20T00:48:49;98731.53;;;-7.92
22269;BMP280;11303;50.772;19.670;2022-11-20T00:50:50;98736.16;;;-7.94
22269;BMP280;11303;50.772;19.670;2022-11-20T00:52:52;98738.47;;;-7.92
22269;BMP280;11303;50.772;19.670;2022-11-20T00:54:53;98728.66;;;-7.85
22269;BMP280;11303;50.772;19.670;2022-11-20T00:56:55;98733.00;;;-7.81
22269;BMP280;11303;50.772;19.670;2022-11-20T00:58:59;98734.59;;;-7.80
22269;BMP280;11303;50.772;19.670;2022-11-20T01:01:12;98740.72;;;-7.81
22269;BMP280;11303;50.772;19.670;2022-11-20T01:03:16;98740.97;;;-7.82
22269;BMP280;11303;50.772;19.670;2022-11-20T01:05:23;98748.97;;;-7.84
22269;BMP280;11303;50.772;19.670;2022-11-20T01:07:24;98738.47;;;-7.87
22269;BMP280;11303;50.772;19.670;2022-11-20T01:09:26;98749.53;;;-7.92
22269;BMP280;11303;50.772;19.670;2022-11-20T01:11:32;98743.88;;;-7.94
22269;BMP280;11303;50.772;19.670;2022-11-20T01:13:34;98738.22;;;-7.96
22269;BMP280;11303;50.772;19.670;2022-11-20T01:15:39;98732.09;;;-8.05
22269;BMP280;11303;50.772;19.670;2022-11-20T01:17:40;98716.09;;;-7.92
22269;BMP280;11303;50.772;19.670;2022-11-20T01:19:42;98718.94;;;-8.03
22269;BMP280;11303;50.772;19.670;2022-11-20T01:21:45;98718.19;;;-7.99
22269;BMP280;11303;50.772;19.670;2022-11-20T01:23:48;98722.22;;;-7.83
22269;BMP280;11303;50.772;19.670;2022-11-20T01:25:49;98722.56;;;-8.04
22269;BMP280;11303;50.772;19.670;2022-11-20T01:27:51;98712.56;;;-8.11
22269;BMP280;11303;50.772;19.670;2022-11-20T01:29:52;98711.81;;;-8.11
22269;BMP280;11303;50.772;19.670;2022-11-20T01:32:01;98715.66;;;-8.14
22269;BMP280;11303;50.772;19.670;2022-11-20T01:34:05;98710.03;;;-8.16
22269;BMP280;11303;50.772;19.670;2022-11-20T01:36:07;98708.75;;;-8.23
22269;BMP280;11303;50.772;19.670;2022-11-20T01:38:09;98708.00;;;-8.29
22269;BMP280;11303;50.772;19.670;2022-11-20T01:40:11;98701.56;;;-8.21
22269;BMP280;11303;50.772;19.670;2022-11-20T01:42:12;98707.28;;;-8.44
22269;BMP280;11303;50.772;19.670;2022-11-20T01:46:55;98699.22;;;-8.23
22269;BMP280;11303;50.772;19.670;2022-11-20T01:49:04;98706.16;;;-8.08
22269;BMP280;11303;50.772;19.670;2022-11-20T01:51:45;98702.09;;;-8.34
22269;BMP280;11303;50.772;19.670;2022-11-20T01:53:47;98702.78;;;-8.14
22269;BMP280;11303;50.772;19.670;2022-11-20T01:55:51;98701.31;;;-8.25
22269;BMP280;11303;50.772;19.670;2022-11-20T01:57:54;98708.06;;;-8.39
22269;BMP280;11303;50.772;19.670;2022-11-20T02:00:08;98699.13;;;-8.62
22269;BMP280;11303;50.772;19.670;2022-11-20T02:02:10;98701.69;;;-8.57
22269;BMP280;11303;50.772;19.670;2022-11-20T02:04:13;98708.25;;;-8.25
22269;BMP280;11303;50.772;19.670;2022-11-20T02:06:26;98707.56;;;-8.41
22269;BMP280;11303;50.772;19.670;2022-11-20T02:08:29;98700.41;;;-8.59
22269;BMP280;11303;50.772;19.670;2022-11-20T02:10:32;98692.72;;;-8.74
22269;BMP280;11303;50.772;19.670;2022-11-20T02:12:33;98693.78;;;-8.80
22269;BMP280;11303;50.772;19.670;2022-11-20T02:14:54;98686.84;;;-8.85
22269;BMP280;11303;50.772;19.670;2022-11-20T02:16:55;98685.78;;;-8.84
22269;BMP280;11303;50.772;19.670;2022-11-20T02:19:00;98694.50;;;-8.75
22269;BMP280;11303;50.772;19.670;2022-11-20T02:21:07;98692.69;;;-8.64
22269;BMP280;11303;50.772;19.670;2022-11-20T02:23:28;98691.63;;;-8.53
22269;BMP280;11303;50.772;19.670;2022-11-20T02:25:33;98679.31;;;-8.56
22269;BMP280;11303;50.772;19.670;2022-11-20T02:27:36;98691.91;;;-8.65
22269;BMP280;11303;50.772;19.670;2022-11-20T02:31:55;98692.44;;;-8.57
22269;BMP280;11303;50.772;19.670;2022-11-20T02:33:57;98697.03;;;-8.54
22269;BMP280;11303;50.772;19.670;2022-11-20T02:35:59;98700.38;;;-8.49
22269;BMP280;11303;50.772;19.670;2022-11-20T02:38:02;98701.91;;;-8.48
22269;BMP280;11303;50.772;19.670;2022-11-20T02:40:04;98700.88;;;-8.42
22269;BMP280;11303;50.772;19.670;2022-11-20T02:42:05;98711.16;;;-8.42
22269;BMP280;11303;50.772;19.670;2022-11-20T02:44:07;98707.03;;;-8.48
22269;BMP280;11303;50.772;19.670;2022-11-20T02:46:08;98709.34;;;-8.46
22269;BMP280;11303;50.772;19.670;2022-11-20T02:48:10;98724.03;;;-8.47
22269;BMP280;11303;50.772;19.670;2022-11-20T02:50:12;98722.47;;;-8.48
22269;BMP280;11303;50.772;19.670;2022-11-20T02:52:13;98725.03;;;-8.48
22269;BMP280;11303;50.772;19.670;2022-11-20T02:54:15;98728.66;;;-8.49
22269;BMP280;11303;50.772;19.670;2022-11-20T02:56:16;98721.97;;;-8.55
22269;BMP280;11303;50.772;19.670;2022-11-20T02:58:18;98718.41;;;-8.59
22269;BMP280;11303;50.772;19.670;2022-11-20T03:00:19;98716.38;;;-8.62
22269;BMP280;11303;50.772;19.670;2022-11-20T03:02:21;98719.44;;;-8.65
22269;BMP280;11303;50.772;19.670;2022-11-20T03:04:22;98724.06;;;-8.67
22269;BMP280;11303;50.772;19.670;2022-11-20T03:06:24;98724.06;;;-8.67
22269;BMP280;11303;50.772;19.670;2022-11-20T03:08:25;98718.66;;;-8.71
22269;BMP280;11303;50.772;19.670;2022-11-20T03:10:27;98714.81;;;-8.78
22269;BMP280;11303;50.772;19.670;2022-11-20T03:12:28;98716.13;;;-8.76
22269;BMP280;11303;50.772;19.670;2022-11-20T03:14:30;98708.66;;;-8.77
22269;BMP280;11303;50.772;19.670;2022-11-20T03:16:32;98709.19;;;-8.80
22269;BMP280;11303;50.772;19.670;2022-11-20T03:18:34;98707.91;;;-8.88
22269;BMP280;11303;50.772;19.670;2022-11-20T03:20:35;98704.06;;;-8.80
22269;BMP280;11303;50.772;19.670;2022-11-20T03:22:36;98711.47;;;-8.84
22269;BMP280;11303;50.772;19.670;2022-11-20T03:24:38;98706.88;;;-8.87
22269;BMP280;11303;50.772;19.670;2022-11-20T03:26:40;98714.31;;;-8.85
22269;BMP280;11303;50.772;19.670;2022-11-20T03:28:45;98701.75;;;-8.92
22269;BMP280;11303;50.772;19.670;2022-11-20T03:30:47;98710.97;;;-8.86
22269;BMP280;11303;50.772;19.670;2022-11-20T03:32:52;98702.50;;;-8.86
22269;BMP280;11303;50.772;19.670;2022-11-20T03:34:54;98697.88;;;-8.84
22269;BMP280;11303;50.772;19.670;2022-11-20T03:36:56;98700.44;;;-8.79
22269;BMP280;11303;50.772;19.670;2022-11-20T03:38:57;98689.38;;;-8.80
22269;BMP280;11303;50.772;19.670;2022-11-20T03:41:04;98702.25;;;-8.80
22269;BMP280;11303;50.772;19.670;2022-11-20T03:43:06;98705.31;;;-8.83
22269;BMP280;11303;50.772;19.670;2022-11-20T03:45:07;98695.56;;;-8.86
22269;BMP280;11303;50.772;19.670;2022-11-20T03:47:09;98694.81;;;-8.86
22269;BMP280;11303;50.772;19.670;2022-11-20T03:49:11;98688.09;;;-8.87
22269;BMP280;11303;50.772;19.670;2022-11-20T03:51:20;98694.81;;;-8.91
22269;BMP280;11303;50.772;19.670;2022-11-20T03:53:22;98693.53;;;-8.94
22269;BMP280;11303;50.772;19.670;2022-11-20T03:55:24;98694.25;;;-8.78
22269;BMP280;11303;50.772;19.670;2022-11-20T03:57:25;98686.06;;;-8.90
22269;BMP280;11303;50.772;19.670;2022-11-20T03:59:27;98694.56;;;-8.90
22269;BMP280;11303;50.772;19.670;2022-11-20T04:01:34;98693.25;;;-8.82
22269;BMP280;11303;50.772;19.670;2022-11-20T04:03:37;98685.00;;;-8.74
22269;BMP280;11303;50.772;19.670;2022-11-20T04:05:39;98687.56;;;-8.59
22269;BMP280;11303;50.772;19.670;2022-11-20T04:07:41;98699.84;;;-8.46
22269;BMP280;11303;50.772;19.670;2022-11-20T04:09:42;98689.59;;;-8.56
22269;BMP280;11303;50.772;19.670;2022-11-20T04:11:44;98691.41;;;-8.57
22269;BMP280;11303;50.772;19.670;2022-11-20T04:13:48;98697.78;;;-8.54
22269;BMP280;11303;50.772;19.670;2022-11-20T04:15:49;98695.22;;;-8.54
22269;BMP280;11303;50.772;19.670;2022-11-20T04:17:51;98697.03;;;-8.54
22269;BMP280;11303;50.772;19.670;2022-11-20T04:19:52;98696.28;;;-8.55
22269;BMP280;11303;50.772;19.670;2022-11-20T04:21:54;98694.47;;;-8.54
22269;BMP280;11303;50.772;19.670;2022-11-20T04:23:56;98694.22;;;-8.63
22269;BMP280;11303;50.772;19.670;2022-11-20T04:26:16;98686.56;;;-8.68
22269;BMP280;11303;50.772;19.670;2022-11-20T04:28:17;98690.16;;;-8.74
22269;BMP280;11303;50.772;19.670;2022-11-20T04:30:19;98680.38;;;-8.82
22269;BMP280;11303;50.772;19.670;2022-11-20T04:32:20;98686.56;;;-8.83
22269;BMP280;11303;50.772;19.670;2022-11-20T04:34:22;98687.38;;;-8.88
22269;BMP280;11303;50.772;19.670;2022-11-20T04:36:25;98683.75;;;-8.92
22269;BMP280;11303;50.772;19.670;2022-11-20T04:38:27;98679.38;;;-8.96
22269;BMP280;11303;50.772;19.670;2022-11-20T04:40:29;98671.19;;;-8.98
22269;BMP280;11303;50.772;19.670;2022-11-20T04:42:30;98687.34;;;-8.98
22269;BMP280;11303;50.772;19.670;2022-11-20T04:44:32;98671.19;;;-8.98
22269;BMP280;11303;50.772;19.670;2022-11-20T04:46:36;98674.50;;;-8.98
22269;BMP280;11303;50.772;19.670;2022-11-20T04:48:38;98666.28;;;-8.85
22269;BMP280;11303;50.772;19.670;2022-11-20T04:50:40;98668.59;;;-8.88
22269;BMP280;11303;50.772;19.670;2022-11-20T04:52:42;98660.91;;;-8.98
22269;BMP280;11303;50.772;19.670;2022-11-20T04:54:43;98659.38;;;-9.04
22269;BMP280;11303;50.772;19.670;2022-11-20T04:56:44;98668.09;;;-9.10
22269;BMP280;11303;50.772;19.670;2022-11-20T04:58:46;98657.84;;;-9.05
22269;BMP280;11303;50.772;19.670;2022-11-20T05:00:48;98660.91;;;-9.03
22269;BMP280;11303;50.772;19.670;2022-11-20T05:02:49;98655.03;;;-9.09
22269;BMP280;11303;50.772;19.670;2022-11-20T05:04:51;98660.38;;;-8.85
22269;BMP280;11303;50.772;19.670;2022-11-20T05:06:52;98655.78;;;-8.98
22269;BMP280;11303;50.772;19.670;2022-11-20T05:08:54;98639.72;;;-8.55
22269;BMP280;11303;50.772;19.670;2022-11-20T05:11:03;98636.63;;;-8.57
22269;BMP280;11303;50.772;19.670;2022-11-20T05:13:04;98631.59;;;-8.77
22269;BMP280;11303;50.772;19.670;2022-11-20T05:15:06;98643.41;;;-8.86
22269;BMP280;11303;50.772;19.670;2022-11-20T05:17:10;98645.50;;;-8.98
22269;BMP280;11303;50.772;19.670;2022-11-20T05:19:12;98645.50;;;-8.98
22269;BMP280;11303;50.772;19.670;2022-11-20T05:21:14;98654.50;;;-8.91
22269;BMP280;11303;50.772;19.670;2022-11-20T05:23:15;98655.53;;;-8.97
22269;BMP280;11303;50.772;19.670;2022-11-20T05:25:17;98660.88;;;-8.93
22269;BMP280;11303;50.772;19.670;2022-11-20T05:27:18;98653.94;;;-8.93
22269;BMP280;11303;50.772;19.670;2022-11-20T05:29:20;98651.91;;;-8.96
22269;BMP280;11303;50.772;19.670;2022-11-20T05:31:24;98641.66;;;-8.91
22269;BMP280;11303;50.772;19.670;2022-11-20T05:33:28;98643.09;;;-8.60
22269;BMP280;11303;50.772;19.670;2022-11-20T05:35:30;98647.94;;;-8.53
22269;BMP280;11303;50.772;19.670;2022-11-20T05:37:31;98647.91;;;-8.43
22269;BMP280;11303;50.772;19.670;2022-11-20T05:39:33;98642.56;;;-8.62
22269;BMP280;11303;50.772;19.670;2022-11-20T05:41:34;98642.91;;;-8.83
22269;BMP280;11303;50.772;19.670;2022-11-20T05:43:37;98636.94;;;-8.64
22269;BMP280;11303;50.772;19.670;2022-11-20T05:45:39;98637.75;;;-8.93
22269;BMP280;11303;50.772;19.670;2022-11-20T05:47:41;98636.53;;;-9.01
22269;BMP280;11303;50.772;19.670;2022-11-20T05:49:42;98640.88;;;-9.06
22269;BMP280;11303;50.772;19.670;2022-11-20T05:51:44;98636.78;;;-9.07
22269;BMP280;11303;50.772;19.670;2022-11-20T05:53:45;98634.97;;;-8.97
22269;BMP280;11303;50.772;19.670;2022-11-20T05:55:59;98634.22;;;-9.02
22269;BMP280;11303;50.772;19.670;2022-11-20T05:58:01;98638.84;;;-8.99
22269;BMP280;11303;50.772;19.670;2022-11-20T06:00:03;98637.28;;;-9.00
22269;BMP280;11303;50.772;19.670;2022-11-20T06:02:05;98641.13;;;-8.98
22269;BMP280;11303;50.772;19.670;2022-11-20T06:04:06;98642.44;;;-9.00
22269;BMP280;11303;50.772;19.670;2022-11-20T06:06:08;98632.16;;;-9.05
22269;BMP280;11303;50.772;19.670;2022-11-20T06:08:09;98641.16;;;-9.08
22269;BMP280;11303;50.772;19.670;2022-11-20T06:10:11;98637.28;;;-9.10
22269;BMP280;11303;50.772;19.670;2022-11-20T06:12:12;98635.25;;;-9.13
22269;BMP280;11303;50.772;19.670;2022-11-20T06:14:14;98634.72;;;-9.05
22269;BMP280;11303;50.772;19.670;2022-11-20T06:16:18;98630.59;;;-8.96
22269;BMP280;11303;50.772;19.670;2022-11-20T06:18:20;98630.34;;;-9.05
22269;BMP280;11303;50.772;19.670;2022-11-20T06:20:21;98640.09;;;-9.02
22269;BMP280;11303;50.772;19.670;2022-11-20T06:22:23;98638.06;;;-9.00
22269;BMP280;11303;50.772;19.670;2022-11-20T06:24:24;98638.56;;;-8.98
22269;BMP280;11303;50.772;19.670;2022-11-20T06:26:27;98631.13;;;-8.99
22269;BMP280;11303;50.772;19.670;2022-11-20T06:28:29;98636.50;;;-8.91
22269;BMP280;11303;50.772;19.670;2022-11-20T06:30:30;98636.25;;;-8.89
22269;BMP280;11303;50.772;19.670;2022-11-20T06:32:32;98641.13;;;-8.88
22269;BMP280;11303;50.772;19.670;2022-11-20T06:34:34;98644.69;;;-8.84
22269;BMP280;11303;50.772;19.670;2022-11-20T06:36:36;98639.28;;;-8.72
22269;BMP280;11303;50.772;19.670;2022-11-20T06:38:38;98640.00;;;-8.62
22269;BMP280;11303;50.772;19.670;2022-11-20T06:40:43;98644.81;;;-8.45
22269;BMP280;11303;50.772;19.670;2022-11-20T06:42:44;98641.66;;;-8.27
22269;BMP280;11303;50.772;19.670;2022-11-20T06:44:46;98648.00;;;-8.09
22269;BMP280;11303;50.772;19.670;2022-11-20T06:46:47;98641.97;;;-7.90
22269;BMP280;11303;50.772;19.670;2022-11-20T06:48:49;98649.59;;;-7.75
22269;BMP280;11303;50.772;19.670;2022-11-20T06:50:51;98648.53;;;-7.35
22269;BMP280;11303;50.772;19.670;2022-11-20T06:52:53;98653.03;;;-7.22
22269;BMP280;11303;50.772;19.670;2022-11-20T06:54:54;98639.50;;;-7.09
22269;BMP280;11303;50.772;19.670;2022-11-20T06:56:56;98645.34;;;-7.03
22269;BMP280;11303;50.772;19.670;2022-11-20T06:58:58;98642.75;;;-6.75
22269;BMP280;11303;50.772;19.670;2022-11-20T07:01:01;98644.25;;;-6.50
22269;BMP280;11303;50.772;19.670;2022-11-20T07:03:04;98641.69;;;-6.13
22269;BMP280;11303;50.772;19.670;2022-11-20T07:05:11;98646.31;;;-5.91
22269;BMP280;11303;50.772;19.670;2022-11-20T07:07:12;98636.44;;;-5.71
22269;BMP280;11303;50.772;19.670;2022-11-20T07:09:14;98634.97;;;-5.45
22269;BMP280;11303;50.772;19.670;2022-11-20T07:11:16;98624.88;;;-5.14
22269;BMP280;11303;50.772;19.670;2022-11-20T07:13:17;98633.00;;;-4.80
22269;BMP280;11303;50.772;19.670;2022-11-20T07:15:21;98632.47;;;-4.41
22269;BMP280;11303;50.772;19.670;2022-11-20T07:17:23;98635.75;;;-4.14
22269;BMP280;11303;50.772;19.670;2022-11-20T07:19:24;98637.47;;;-3.87
22269;BMP280;11303;50.772;19.670;2022-11-20T07:21:26;98630.53;;;-3.78
22269;BMP280;11303;50.772;19.670;2022-11-20T07:23:27;98625.16;;;-3.82
22269;BMP280;11303;50.772;19.670;2022-11-20T07:25:29;98641.78;;;-3.52
22269;BMP280;11303;50.772;19.670;2022-11-20T07:27:31;98632.72;;;-3.41
22269;BMP280;11303;50.772;19.670;2022-11-20T07:29:33;98628.41;;;-3.06
22269;BMP280;11303;50.772;19.670;2022-11-20T07:31:34;98628.63;;;-2.77
22269;BMP280;11303;50.772;19.670;2022-11-20T07:33:36;98631.38;;;-2.74
22269;BMP280;11303;50.772;19.670;2022-11-20T07:35:37;98613.06;;;-2.86
22269;BMP280;11303;50.772;19.670;2022-11-20T07:37:39;98623.44;;;-2.77
22269;BMP280;11303;50.772;19.670;2022-11-20T07:39:41;98619.19;;;-2.65
22269;BMP280;11303;50.772;19.670;2022-11-20T07:41:42;98609.41;;;-2.76
22269;BMP280;11303;50.772;19.670;2022-11-20T07:43:44;98610.47;;;-2.86
22269;BMP280;11303;50.772;19.670;2022-11-20T07:45:45;98612.94;;;-2.47
22269;BMP280;11303;50.772;19.670;2022-11-20T07:47:47;98616.28;;;-2.04
22269;BMP280;11303;50.772;19.670;2022-11-20T07:49:49;98617.50;;;-2.01
22269;BMP280;11303;50.772;19.670;2022-11-20T07:51:51;98605.31;;;-2.35
22269;BMP280;11303;50.772;19.670;2022-11-20T07:53:54;98613.56;;;-2.16
22269;BMP280;11303;50.772;19.670;2022-11-20T07:55:59;98604.53;;;-2.44
22269;BMP280;11303;50.772;19.670;2022-11-20T07:58:01;98604.22;;;-2.34
22269;BMP280;11303;50.772;19.670;2022-11-20T08:00:04;98609.09;;;-2.32
22269;BMP280;11303;50.772;19.670;2022-11-20T08:02:10;98596.28;;;-2.20
22269;BMP280;11303;50.772;19.670;2022-11-20T08:04:12;98602.53;;;-2.13
22269;BMP280;11303;50.772;19.670;2022-11-20T08:06:13;98602.00;;;-1.72
22269;BMP280;11303;50.772;19.670;2022-11-20T08:08:16;98601.75;;;-1.96
22269;BMP280;11303;50.772;19.670;2022-11-20T08:10:17;98605.56;;;-2.02
22269;BMP280;11303;50.772;19.670;2022-11-20T08:12:20;98607.59;;;-2.16
22269;BMP280;11303;50.772;19.670;2022-11-20T08:14:40;98607.06;;;-1.75
22269;BMP280;11303;50.772;19.670;2022-11-20T08:16:51;98611.56;;;-1.18
22269;BMP280;11303;50.772;19.670;2022-11-20T08:18:52;98602.53;;;-1.20
22269;BMP280;11303;50.772;19.670;2022-11-20T08:20:54;98607.53;;;-1.44
22269;BMP280;11303;50.772;19.670;2022-11-20T08:23:03;98596.03;;;-1.72
22269;BMP280;11303;50.772;19.670;2022-11-20T08:25:06;98600.97;;;-1.79
22269;BMP280;11303;50.772;19.670;2022-11-20T08:27:08;98607.19;;;-1.72
22269;BMP280;11303;50.772;19.670;2022-11-20T08:29:10;98604.94;;;-1.44
22269;BMP280;11303;50.772;19.670;2022-11-20T08:31:11;98611.59;;;-0.77
22269;BMP280;11303;50.772;19.670;2022-11-20T08:33:13;98601.22;;;-0.24
22269;BMP280;11303;50.772;19.670;2022-11-20T08:35:14;98609.13;;;0.00
22269;BMP280;11303;50.772;19.670;2022-11-20T08:37:16;98602.09;;;0.13
22269;BMP280;11303;50.772;19.670;2022-11-20T08:39:18;98610.34;;;0.39
22269;BMP280;11303;50.772;19.670;2022-11-20T08:41:20;98611.44;;;0.38
22269;BMP280;11303;50.772;19.670;2022-11-20T08:43:25;98610.81;;;0.29
22269;BMP280;11303;50.772;19.670;2022-11-20T08:45:26;98612.56;;;0.61
22269;BMP280;11303;50.772;19.670;2022-11-20T08:47:34;98613.16;;;0.94
22269;BMP280;11303;50.772;19.670;2022-11-20T08:49:36;98604.16;;;0.56
22269;BMP280;11303;50.772;19.670;2022-11-20T08:51:38;98611.66;;;0.81
22269;BMP280;11303;50.772;19.670;2022-11-20T08:53:40;98610.69;;;0.62
22269;BMP280;11303;50.772;19.670;2022-11-20T08:55:42;98609.28;;;0.40
22269;BMP280;11303;50.772;19.670;2022-11-20T08:57:44;98607.31;;;0.49
22269;BMP280;11303;50.772;19.670;2022-11-20T08:59:51;98606.03;;;0.43
22269;BMP280;11303;50.772;19.670;2022-11-20T09:02:07;98607.53;;;0.68
22269;BMP280;11303;50.772;19.670;2022-11-20T09:04:09;98589.94;;;1.17
22269;BMP280;11303;50.772;19.670;2022-11-20T09:06:10;98588.84;;;1.45
22269;BMP280;11303;50.772;19.670;2022-11-20T09:08:12;98586.06;;;1.66
22269;BMP280;11303;50.772;19.670;2022-11-20T09:10:14;98601.28;;;1.76
22269;BMP280;11303;50.772;19.670;2022-11-20T09:12:25;98592.03;;;1.39
22269;BMP280;11303;50.772;19.670;2022-11-20T09:14:27;98588.75;;;1.26
22269;BMP280;11303;50.772;19.670;2022-11-20T09:16:31;98593.88;;;1.11
22269;BMP280;11303;50.772;19.670;2022-11-20T09:18:33;98593.44;;;1.48
22269;BMP280;11303;50.772;19.670;2022-11-20T09:20:37;98601.38;;;1.52
22269;BMP280;11303;50.772;19.670;2022-11-20T09:22:39;98580.66;;;1.31
22269;BMP280;11303;50.772;19.670;2022-11-20T09:24:41;98583.53;;;1.26
22269;BMP280;11303;50.772;19.670;2022-11-20T09:26:44;98570.66;;;1.76
22269;BMP280;11303;50.772;19.670;2022-11-20T09:28:45;98580.47;;;2.26
22269;BMP280;11303;50.772;19.670;2022-11-20T09:30:47;98574.03;;;2.08
22269;BMP280;11303;50.772;19.670;2022-11-20T09:32:48;98573.84;;;2.32
22269;BMP280;11303;50.772;19.670;2022-11-20T09:34:50;98578.50;;;2.39
22269;BMP280;11303;50.772;19.670;2022-11-20T09:36:51;98573.38;;;2.11
22269;BMP280;11303;50.772;19.670;2022-11-20T09:38:53;98567.09;;;2.00
22269;BMP280;11303;50.772;19.670;2022-11-20T09:40:58;98563.94;;;2.22
22269;BMP280;11303;50.772;19.670;2022-11-20T09:43:13;98571.25;;;2.16
22269;BMP280;11303;50.772;19.670;2022-11-20T09:45:36;98561.03;;;2.62
22269;BMP280;11303;50.772;19.670;2022-11-20T09:47:52;98559.16;;;2.78
22269;BMP280;11303;50.772;19.670;2022-11-20T09:54:31;98544.22;;;2.63
22269;BMP280;11303;50.772;19.670;2022-11-20T09:56:37;98540.59;;;2.33
22269;BMP280;11303;50.772;19.670;2022-11-20T09:58:42;98543.31;;;2.05
22269;BMP280;11303;50.772;19.670;2022-11-20T10:00:47;98544.09;;;2.05
22269;BMP280;11303;50.772;19.670;2022-11-20T10:02:59;98541.41;;;2.17
22269;BMP280;11303;50.772;19.670;2022-11-20T10:07:48;98540.19;;;2.30
22269;BMP280;11303;50.772;19.670;2022-11-20T10:09:56;98538.38;;;2.34
22269;BMP280;11303;50.772;19.670;2022-11-20T10:18:38;98530.66;;;2.22
22269;BMP280;11303;50.772;19.670;2022-11-20T10:20:49;98527.19;;;2.03
22269;BMP280;11303;50.772;19.670;2022-11-20T10:23:27;98525.53;;;1.79
22269;BMP280;11303;50.772;19.670;2022-11-20T10:25:50;98527.72;;;2.08
22269;BMP280;11303;50.772;19.670;2022-11-20T10:28:14;98528.69;;;2.51
22269;BMP280;11303;50.772;19.670;2022-11-20T10:30:20;98525.63;;;2.83
22269;BMP280;11303;50.772;19.670;2022-11-20T10:32:30;98523.16;;;2.75
22269;BMP280;11303;50.772;19.670;2022-11-20T10:36:47;98511.84;;;2.86
22269;BMP280;11303;50.772;19.670;2022-11-20T10:39:18;98511.97;;;2.55
22269;BMP280;11303;50.772;19.670;2022-11-20T10:41:41;98514.00;;;2.30
22269;BMP280;11303;50.772;19.670;2022-11-20T10:43:43;98511.28;;;2.43
22269;BMP280;11303;50.772;19.670;2022-11-20T10:46:01;98509.94;;;2.49
22269;BMP280;11303;50.772;19.670;2022-11-20T10:48:15;98508.16;;;2.53
22269;BMP280;11303;50.772;19.670;2022-11-20T10:50:25;98504.09;;;2.55
22269;BMP280;11303;50.772;19.670;2022-11-20T10:53:00;98500.97;;;2.50
22269;BMP280;11303;50.772;19.670;2022-11-20T10:55:12;98489.28;;;2.28
22269;BMP280;11303;50.772;19.670;2022-11-20T11:00:05;98497.09;;;2.44
22269;BMP280;11303;50.772;19.670;2022-11-20T11:02:21;98493.06;;;2.65
22269;BMP280;11303;50.772;19.670;2022-11-20T11:04:32;98484.09;;;2.66
22269;BMP280;11303;50.772;19.670;2022-11-20T11:06:39;98490.78;;;3.02
22269;BMP280;11303;50.772;19.670;2022-11-20T11:08:42;98473.78;;;3.34
22269;BMP280;11303;50.772;19.670;2022-11-20T11:10:57;98476.44;;;2.96
22269;BMP280;11303;50.772;19.670;2022-11-20T11:13:00;98477.28;;;2.62
22269;BMP280;11303;50.772;19.670;2022-11-20T11:15:02;98478.00;;;2.59
22269;BMP280;11303;50.772;19.670;2022-11-20T11:17:04;98479.22;;;2.46
22269;BMP280;11303;50.772;19.670;2022-11-20T11:19:13;98473.19;;;2.26
22269;BMP280;11303;50.772;19.670;2022-11-20T11:21:21;98475.47;;;2.47
22269;BMP280;11303;50.772;19.670;2022-11-20T11:23:35;98474.53;;;2.55
22269;BMP280;11303;50.772;19.670;2022-11-20T11:25:37;98483.69;;;2.64
22269;BMP280;11303;50.772;19.670;2022-11-20T11:27:49;98486.38;;;2.68
22269;BMP280;11303;50.772;19.670;2022-11-20T11:30:14;98482.59;;;2.65
22269;BMP280;11303;50.772;19.670;2022-11-20T11:32:19;98480.47;;;2.36
22269;BMP280;11303;50.772;19.670;2022-11-20T11:34:24;98480.97;;;2.22
22269;BMP280;11303;50.772;19.670;2022-11-20T11:36:26;98487.47;;;2.13
22269;BMP280;11303;50.772;19.670;2022-11-20T11:38:36;98483.41;;;2.15
22269;BMP280;11303;50.772;19.670;2022-11-20T11:40:39;98480.31;;;1.94
22269;BMP280;11303;50.772;19.670;2022-11-20T11:43:00;98485.38;;;1.87
22269;BMP280;11303;50.772;19.670;2022-11-20T11:45:05;98487.94;;;1.68
22269;BMP280;11303;50.772;19.670;2022-11-20T11:47:23;98477.28;;;1.61
22269;BMP280;11303;50.772;19.670;2022-11-20T11:49:25;98477.88;;;1.55
22269;BMP280;11303;50.772;19.670;2022-11-20T11:51:41;98474.75;;;1.49
22269;BMP280;11303;50.772;19.670;2022-11-20T11:53:46;98464.78;;;1.39
22269;BMP280;11303;50.772;19.670;2022-11-20T11:56:08;98465.81;;;1.19
22269;BMP280;11303;50.772;19.670;2022-11-20T11:58:17;98466.88;;;1.18
22269;BMP280;11303;50.772;19.670;2022-11-20T12:00:24;98452.81;;;1.23
22269;BMP280;11303;50.772;19.670;2022-11-20T12:02:49;98456.19;;;1.39
22269;BMP280;11303;50.772;19.670;2022-11-20T12:04:58;98456.22;;;1.54
22269;BMP280;11303;50.772;19.670;2022-11-20T12:07:27;98445.66;;;1.51
22269;BMP280;11303;50.772;19.670;2022-11-20T12:09:50;98449.16;;;1.55
22269;BMP280;11303;50.772;19.670;2022-11-20T12:11:58;98437.41;;;1.64